Time;durP1;ratioP1;P1;durP2;ratioP2;P2;SDS_P1;SDS_P2;PMS_P1;PMS_P2;Temp;Humidity;BMP_temperature;BMP_pressure;BME280_temperature;BME280_humidity;BME280_pressure;Samples;Min_cycle;Max_cycle;Signal;HPM_P1;HPM_P2
2023/08/12 00:00:13;;;;;;;8.02;4.32;;;18.70;97.90;;;;;;6223788;23;20392;-79
2023/08/12 00:02:43;;;;;;;6.53;4.40;;;18.70;97.90;;;;;;6250349;23;20032;-78
2023/08/12 00:05:12;;;;;;;6.80;4.40;;;18.60;97.80;;;;;;6249342;23;20046;-77
2023/08/12 00:07:42;;;;;;;7.18;4.55;;;18.60;97.70;;;;;;6222399;23;20016;-78
2023/08/12 00:10:09;;;;;;;8.48;4.47;;;18.60;97.70;;;;;;6250369;23;20000;-78
2023/08/12 00:12:35;;;;;;;8.95;4.43;;;18.50;97.60;;;;;;6250175;23;20027;-78
2023/08/12 00:15:07;;;;;;;7.75;4.70;;;18.50;97.60;;;;;;6248554;23;20011;-80
2023/08/12 00:17:34;;;;;;;8.27;4.70;;;18.50;97.60;;;;;;6250490;23;20008;-78
2023/08/12 00:19:59;;;;;;;8.45;4.35;;;18.40;97.50;;;;;;6248819;23;20004;-79
2023/08/12 00:22:25;;;;;;;10.13;4.75;;;18.40;97.40;;;;;;6248098;23;20102;-78
2023/08/12 00:24:51;;;;;;;7.47;4.35;;;18.40;97.50;;;;;;6250086;23;20050;-79
2023/08/12 00:27:18;;;;;;;7.80;4.95;;;18.40;97.60;;;;;;6250188;23;19996;-79
2023/08/12 00:29:44;;;;;;;8.35;4.68;;;18.40;97.60;;;;;;6250044;23;20026;-78
2023/08/12 00:32:09;;;;;;;8.30;5.20;;;18.40;97.70;;;;;;6250201;23;20000;-78
2023/08/12 00:34:35;;;;;;;7.38;4.63;;;18.40;97.70;;;;;;6223295;23;20526;-79
2023/08/12 00:37:01;;;;;;;9.98;4.30;;;18.40;97.60;;;;;;6247227;23;20007;-79
2023/08/12 00:39:27;;;;;;;7.63;4.15;;;18.40;97.50;;;;;;6249171;23;20000;-78
2023/08/12 00:41:53;;;;;;;7.82;4.22;;;18.30;97.50;;;;;;6249580;23;20012;-78
2023/08/12 00:44:19;;;;;;;11.23;5.45;;;18.30;97.60;;;;;;6223221;23;20008;-78
2023/08/12 00:46:44;;;;;;;6.80;4.30;;;18.30;97.50;;;;;;6249675;23;20366;-78
2023/08/12 00:49:11;;;;;;;8.15;4.40;;;18.30;97.40;;;;;;6249919;23;20035;-78
2023/08/12 00:51:41;;;;;;;8.73;4.40;;;18.30;97.30;;;;;;6248515;23;20404;-79
2023/08/12 00:54:13;;;;;;;7.80;4.43;;;18.20;97.20;;;;;;6249128;23;20008;-78
2023/08/12 00:56:38;;;;;;;7.10;4.50;;;18.20;97.00;;;;;;6249868;23;20426;-78
2023/08/12 00:59:06;;;;;;;7.85;4.50;;;18.20;97.00;;;;;;6223250;23;20039;-78
2023/08/12 01:01:33;;;;;;;8.68;4.10;;;18.20;97.00;;;;;;6249802;23;20010;-79
2023/08/12 01:03:59;;;;;;;8.02;4.55;;;18.20;97.00;;;;;;6223248;23;20004;-78
2023/08/12 01:06:25;;;;;;;9.23;4.60;;;18.20;97.10;;;;;;6248047;23;19992;-79
2023/08/12 01:08:51;;;;;;;7.38;4.35;;;18.20;97.10;;;;;;6222704;23;20134;-78
2023/08/12 01:11:54;;;;;;;7.40;4.47;;;18.20;97.10;;;;;;6223193;23;20004;-78
2023/08/12 01:14:49;;;;;;;8.35;4.45;;;18.10;97.00;;;;;;6161321;23;20435;-79
2023/08/12 01:17:15;;;;;;;8.43;4.68;;;18.10;97.00;;;;;;6248744;23;20016;-78
2023/08/12 01:19:42;;;;;;;13.82;4.65;;;18.10;97.20;;;;;;6249715;23;20282;-78
2023/08/12 01:22:12;;;;;;;9.90;4.65;;;18.10;97.10;;;;;;6247692;23;20004;-78
2023/08/12 01:24:39;;;;;;;11.50;4.90;;;18.10;97.10;;;;;;6249095;23;20006;-79
2023/08/12 01:27:09;;;;;;;8.88;4.70;;;18.10;97.00;;;;;;6223014;23;20004;-78
2023/08/12 01:29:37;;;;;;;7.38;4.47;;;18.10;97.00;;;;;;6248091;23;20004;-77
2023/08/12 01:32:37;;;;;;;8.15;4.60;;;18.20;97.20;;;;;;6249387;23;20000;-76
2023/08/12 01:35:20;;;;;;;7.13;4.45;;;18.20;97.60;;;;;;6249401;23;20397;-75
2023/08/12 01:37:49;;;;;;;8.33;5.07;;;18.30;97.70;;;;;;6249293;23;19996;-76
2023/08/12 01:40:19;;;;;;;9.10;4.30;;;18.30;97.70;;;;;;6248646;23;19996;-79
2023/08/12 01:42:47;;;;;;;8.32;4.78;;;18.30;98.00;;;;;;6223292;23;20016;-78
2023/08/12 01:45:15;;;;;;;7.32;4.28;;;18.30;98.00;;;;;;6249774;23;20015;-79
2023/08/12 01:47:46;;;;;;;7.18;4.30;;;18.40;98.00;;;;;;6249528;23;20377;-78
2023/08/12 01:50:11;;;;;;;8.00;4.30;;;18.50;98.00;;;;;;6249262;23;20007;-80
2023/08/12 01:52:37;;;;;;;6.93;4.35;;;18.50;98.00;;;;;;6247792;23;20004;-79
2023/08/12 01:55:04;;;;;;;7.50;4.78;;;18.40;98.00;;;;;;6248966;23;20008;-78
2023/08/12 01:57:29;;;;;;;6.55;4.43;;;18.40;98.00;;;;;;6249121;23;20382;-78
2023/08/12 01:59:55;;;;;;;6.97;4.00;;;18.50;98.00;;;;;;6249487;23;20054;-78
2023/08/12 02:02:21;;;;;;;8.25;4.47;;;18.50;98.00;;;;;;6248574;23;20032;-78
2023/08/12 02:04:47;;;;;;;8.95;4.18;;;18.60;98.00;;;;;;6222822;23;20008;-79
2023/08/12 02:07:12;;;;;;;6.30;3.97;;;18.70;98.00;;;;;;6220932;23;20091;-77
2023/08/12 02:09:40;;;;;;;6.90;3.88;;;18.70;98.00;;;;;;6248933;23;20007;-78
2023/08/12 02:12:06;;;;;;;8.57;4.50;;;18.80;98.00;;;;;;6249275;23;20000;-79
2023/08/12 02:14:32;;;;;;;8.35;3.97;;;18.70;98.00;;;;;;6248635;23;20089;-78
2023/08/12 02:16:58;;;;;;;6.50;4.28;;;18.70;98.00;;;;;;6249406;23;20000;-78
2023/08/12 02:19:23;;;;;;;6.30;4.03;;;18.70;98.00;;;;;;6249553;23;20056;-78
2023/08/12 02:21:49;;;;;;;6.63;4.35;;;18.70;98.00;;;;;;6221039;23;20004;-77
2023/08/12 02:24:15;;;;;;;7.00;4.03;;;18.70;98.00;;;;;;6248502;23;20008;-78
2023/08/12 02:26:40;;;;;;;6.60;4.32;;;18.70;98.00;;;;;;6222673;23;20005;-78
2023/08/12 02:29:06;;;;;;;7.15;4.25;;;18.70;98.00;;;;;;6249399;23;20098;-78
2023/08/12 02:31:32;;;;;;;7.15;4.28;;;18.80;98.00;;;;;;6249252;23;20389;-78
2023/08/12 02:33:58;;;;;;;6.18;3.67;;;18.80;98.00;;;;;;6249264;23;20058;-78
2023/08/12 02:36:25;;;;;;;6.32;4.07;;;18.90;98.00;;;;;;6220875;23;20014;-80
2023/08/12 02:38:50;;;;;;;7.75;4.20;;;19.00;98.00;;;;;;6248773;23;20104;-78
2023/08/12 02:41:16;;;;;;;6.30;4.07;;;19.00;98.00;;;;;;6222765;23;20008;-78
2023/08/12 02:43:43;;;;;;;5.50;3.50;;;19.10;98.00;;;;;;6249075;23;20013;-78
2023/08/12 02:46:08;;;;;;;6.22;3.92;;;19.10;98.00;;;;;;6249223;23;20000;-79
2023/08/12 02:48:35;;;;;;;5.95;3.83;;;19.10;98.00;;;;;;6222541;23;20032;-78
2023/08/12 02:51:02;;;;;;;6.50;3.60;;;19.10;98.00;;;;;;6247941;23;20378;-78
2023/08/12 02:53:27;;;;;;;5.72;3.63;;;19.10;98.00;;;;;;6248765;23;20004;-78
2023/08/12 02:55:53;;;;;;;9.68;3.53;;;19.10;98.00;;;;;;6249063;23;20054;-79
2023/08/12 02:58:19;;;;;;;8.63;3.55;;;19.10;98.00;;;;;;6249356;23;20000;-78
2023/08/12 03:00:44;;;;;;;5.65;3.38;;;19.10;98.00;;;;;;6249126;23;20007;-78
2023/08/12 03:03:11;;;;;;;7.47;3.55;;;19.10;98.00;;;;;;6248968;23;20008;-79
2023/08/12 03:05:37;;;;;;;8.10;3.60;;;19.10;98.00;;;;;;6247420;23;20621;-77
2023/08/12 03:08:03;;;;;;;8.43;3.90;;;19.10;98.00;;;;;;6248111;23;20007;-78
2023/08/12 03:10:29;;;;;;;5.75;3.67;;;19.10;98.00;;;;;;6250905;23;20011;-78
2023/08/12 03:12:55;;;;;;;7.43;3.97;;;19.10;98.00;;;;;;6250918;23;20358;-79
2023/08/12 03:15:20;;;;;;;7.43;3.70;;;19.20;98.00;;;;;;6250827;23;20056;-79
2023/08/12 03:17:46;;;;;;;6.88;3.63;;;19.20;98.00;;;;;;6250985;23;20083;-78
2023/08/12 03:20:12;;;;;;;6.40;3.95;;;19.20;97.90;;;;;;6250693;23;20000;-78
2023/08/12 03:22:38;;;;;;;6.55;3.42;;;19.20;97.90;;;;;;6248616;23;20008;-78
2023/08/12 03:25:04;;;;;;;7.18;3.78;;;19.30;97.90;;;;;;6250598;23;20261;-79
2023/08/12 03:27:30;;;;;;;6.72;3.55;;;19.30;98.00;;;;;;6250711;23;20014;-77
2023/08/12 03:29:56;;;;;;;7.57;3.90;;;19.30;98.00;;;;;;6250715;23;20028;-79
2023/08/12 03:32:24;;;;;;;7.40;3.83;;;19.20;98.00;;;;;;6250600;23;20004;-80
2023/08/12 03:34:49;;;;;;;7.13;3.90;;;19.30;98.00;;;;;;6249322;23;20032;-78
2023/08/12 03:37:15;;;;;;;6.55;3.75;;;19.30;98.00;;;;;;6248799;23;20261;-79
2023/08/12 03:39:40;;;;;;;7.05;3.92;;;19.30;98.00;;;;;;6250567;23;20027;-78
2023/08/12 03:42:06;;;;;;;7.28;3.90;;;19.10;98.00;;;;;;6224050;23;20096;-79
2023/08/12 03:44:31;;;;;;;6.72;3.65;;;19.00;98.00;;;;;;6250570;23;20000;-78
2023/08/12 03:46:57;;;;;;;6.22;3.33;;;19.00;98.00;;;;;;6250173;23;20004;-78
2023/08/12 03:49:22;;;;;;;9.63;3.85;;;19.10;98.00;;;;;;6250417;23;20023;-78
2023/08/12 03:51:48;;;;;;;6.65;3.90;;;19.00;98.00;;;;;;6248658;23;20003;-79
2023/08/12 03:54:13;;;;;;;7.40;3.90;;;19.00;98.00;;;;;;6223934;23;20008;-78
2023/08/12 03:56:39;;;;;;;8.38;3.78;;;18.90;98.00;;;;;;6250403;23;20019;-79
2023/08/12 03:59:05;;;;;;;7.10;4.20;;;19.00;98.00;;;;;;6250622;23;20361;-79
2023/08/12 04:01:30;;;;;;;5.68;3.40;;;19.10;98.00;;;;;;6250483;23;20266;-78
2023/08/12 04:03:56;;;;;;;6.85;3.65;;;18.90;98.00;;;;;;6250294;23;20004;-78
2023/08/12 04:06:21;;;;;;;7.75;3.70;;;18.70;98.00;;;;;;6248342;23;20368;-78
2023/08/12 04:08:47;;;;;;;8.05;3.60;;;18.90;98.00;;;;;;6250242;23;20003;-79
2023/08/12 04:11:12;;;;;;;5.50;3.50;;;18.90;98.00;;;;;;6250612;23;20011;-78
2023/08/12 04:13:38;;;;;;;7.00;3.83;;;19.00;98.00;;;;;;6250234;23;20050;-78
2023/08/12 04:16:04;;;;;;;5.22;3.45;;;19.10;98.00;;;;;;6250288;23;20062;-78
2023/08/12 04:18:29;;;;;;;6.80;4.07;;;19.10;98.00;;;;;;6250235;23;20000;-79
2023/08/12 04:20:55;;;;;;;6.88;4.25;;;19.10;98.00;;;;;;6247808;23;20007;-78
2023/08/12 04:23:20;;;;;;;8.23;4.30;;;19.00;98.00;;;;;;6249797;23;20019;-77
2023/08/12 04:25:47;;;;;;;10.57;4.55;;;18.90;98.00;;;;;;6249311;23;20015;-78
2023/08/12 04:28:14;;;;;;;6.50;4.30;;;18.70;98.00;;;;;;6249586;23;20008;-77
2023/08/12 04:30:42;;;;;;;7.63;4.53;;;18.70;98.00;;;;;;6250164;23;20358;-76
2023/08/12 04:33:08;;;;;;;7.03;4.20;;;18.80;98.00;;;;;;6249987;23;20014;-77
2023/08/12 04:35:33;;;;;;;9.68;4.65;;;18.80;98.00;;;;;;6248649;23;20434;-78
2023/08/12 04:37:59;;;;;;;6.68;3.88;;;18.80;98.00;;;;;;6250015;23;20004;-79
2023/08/12 04:40:25;;;;;;;7.22;4.00;;;18.80;98.00;;;;;;6250003;23;20000;-79
2023/08/12 04:42:50;;;;;;;8.57;3.80;;;18.90;98.00;;;;;;6249551;23;20008;-78
2023/08/12 04:45:19;;;;;;;6.43;3.80;;;19.00;98.00;;;;;;6223377;23;20002;-78
2023/08/12 04:47:45;;;;;;;7.25;3.40;;;19.00;98.00;;;;;;6249994;23;20003;-80
2023/08/12 04:50:10;;;;;;;6.38;3.17;;;19.10;98.00;;;;;;6223221;23;20031;-79
2023/08/12 04:52:36;;;;;;;7.47;3.08;;;19.20;98.00;;;;;;6248532;23;20000;-79
2023/08/12 04:55:02;;;;;;;6.85;3.67;;;19.30;98.00;;;;;;6249890;23;20050;-78
2023/08/12 04:57:28;;;;;;;6.55;3.20;;;19.60;98.00;;;;;;6249223;23;20004;-78
2023/08/12 04:59:54;;;;;;;6.72;3.30;;;19.70;98.00;;;;;;6249962;23;20065;-78
2023/08/12 05:02:20;;;;;;;5.75;3.20;;;19.90;98.00;;;;;;6249677;23;20028;-78
2023/08/12 05:04:55;;;;;;;5.97;3.10;;;20.10;97.50;;;;;;6249779;23;20023;-79
2023/08/12 05:07:21;;;;;;;6.93;3.17;;;20.30;96.80;;;;;;6248367;23;19996;-79
2023/08/12 05:09:46;;;;;;;5.25;3.10;;;20.50;96.20;;;;;;6222945;23;20022;-78
2023/08/12 05:12:12;;;;;;;5.35;3.28;;;20.70;96.00;;;;;;6249318;23;20054;-79
2023/08/12 05:14:39;;;;;;;6.25;3.65;;;20.90;96.30;;;;;;6249698;23;20004;-78
2023/08/12 05:17:05;;;;;;;9.30;4.03;;;20.90;96.30;;;;;;6249526;23;20082;-79
2023/08/12 05:19:31;;;;;;;5.25;3.33;;;20.70;96.90;;;;;;6248716;23;20031;-79
2023/08/12 05:21:57;;;;;;;7.25;3.80;;;20.70;96.80;;;;;;6248253;23;20264;-79
2023/08/12 05:24:22;;;;;;;6.05;3.30;;;20.80;97.00;;;;;;6249702;23;20105;-77
2023/08/12 05:26:48;;;;;;;8.18;3.30;;;20.70;96.70;;;;;;6249535;23;20000;-79
2023/08/12 05:29:13;;;;;;;5.68;3.40;;;20.90;96.50;;;;;;6249639;23;20000;-78
2023/08/12 05:31:39;;;;;;;6.82;3.83;;;21.10;96.20;;;;;;6249557;23;20004;-78
2023/08/12 05:34:04;;;;;;;9.68;3.88;;;21.30;96.00;;;;;;6248997;23;20079;-78
2023/08/12 05:36:30;;;;;;;5.75;3.10;;;21.40;96.00;;;;;;6248612;23;20066;-78
2023/08/12 05:38:56;;;;;;;5.68;3.35;;;21.50;95.10;;;;;;6249020;23;20392;-78
2023/08/12 05:41:22;;;;;;;8.85;3.80;;;21.60;94.80;;;;;;6249473;23;20415;-79
2023/08/12 05:43:48;;;;;;;8.38;4.18;;;21.70;94.50;;;;;;6248486;23;20038;-79
2023/08/12 05:46:14;;;;;;;11.88;5.50;;;21.80;94.00;;;;;;6248960;23;19996;-79
2023/08/12 05:48:39;;;;;;;13.20;7.60;;;21.90;94.30;;;;;;6223045;23;20069;-78
2023/08/12 05:51:05;;;;;;;7.00;4.53;;;22.10;95.40;;;;;;6248021;23;20036;-79
2023/08/12 05:53:32;;;;;;;9.73;4.50;;;22.10;95.80;;;;;;6248883;23;20008;-79
2023/08/12 05:55:57;;;;;;;9.00;6.80;;;22.00;96.80;;;;;;6249437;23;20004;-79
2023/08/12 05:58:23;;;;;;;11.23;5.30;;;22.00;97.50;;;;;;6249345;23;20000;-79
2023/08/12 06:00:48;;;;;;;8.35;4.10;;;21.90;97.60;;;;;;6248957;23;20428;-79
2023/08/12 06:03:14;;;;;;;8.90;5.85;;;22.00;97.70;;;;;;6249054;23;20005;-80
2023/08/12 06:05:41;;;;;;;10.45;4.90;;;22.20;97.60;;;;;;6247356;23;20024;-79
2023/08/12 06:08:06;;;;;;;6.80;4.40;;;22.20;97.50;;;;;;6222794;23;20385;-79
2023/08/12 06:10:33;;;;;;;7.82;3.92;;;22.40;97.30;;;;;;6249243;23;20034;-79
2023/08/12 06:12:58;;;;;;;5.95;3.28;;;22.40;96.90;;;;;;6222204;23;20247;-80
2023/08/12 06:15:24;;;;;;;5.88;3.50;;;22.40;97.00;;;;;;6248546;23;20007;-79
2023/08/12 06:17:49;;;;;;;7.63;3.55;;;22.40;96.50;;;;;;6248052;23;20434;-78
2023/08/12 06:20:15;;;;;;;5.25;3.33;;;22.30;96.70;;;;;;6248682;23;20008;-78
2023/08/12 06:22:41;;;;;;;6.32;3.35;;;22.30;97.30;;;;;;6246776;23;20107;-79
2023/08/12 06:25:07;;;;;;;8.65;4.43;;;22.50;97.80;;;;;;6222387;23;20000;-79
2023/08/12 06:27:32;;;;;;;6.78;4.00;;;22.60;97.50;;;;;;6249106;23;20024;-78
2023/08/12 06:29:58;;;;;;;5.68;3.53;;;22.80;97.30;;;;;;6248896;23;19996;-78
2023/08/12 06:32:23;;;;;;;8.10;3.38;;;23.10;96.50;;;;;;6247879;23;20008;-78
2023/08/12 06:34:49;;;;;;;5.68;3.67;;;23.30;95.80;;;;;;6248847;23;20004;-79
2023/08/12 06:37:14;;;;;;;12.13;3.80;;;23.70;94.60;;;;;;6247775;23;20050;-79
2023/08/12 06:39:40;;;;;;;5.88;3.40;;;24.20;92.20;;;;;;6248831;23;20054;-80
2023/08/12 06:42:05;;;;;;;7.63;3.50;;;24.40;91.60;;;;;;6221729;23;20004;-79
2023/08/12 06:44:31;;;;;;;4.95;2.97;;;24.60;89.90;;;;;;6249136;23;20003;-79
2023/08/12 06:46:57;;;;;;;6.05;3.20;;;24.70;89.60;;;;;;6250774;23;20358;-79
2023/08/12 06:49:22;;;;;;;6.75;3.33;;;24.90;89.30;;;;;;6251128;23;20000;-79
2023/08/12 06:51:48;;;;;;;5.55;3.20;;;25.10;90.10;;;;;;6248866;23;20019;-78
2023/08/12 06:54:13;;;;;;;5.68;3.20;;;25.20;90.10;;;;;;6250453;23;20004;-80
2023/08/12 06:56:39;;;;;;;5.20;3.20;;;25.20;90.80;;;;;;6250499;23;20057;-79
2023/08/12 06:59:04;;;;;;;5.25;3.10;;;25.10;91.90;;;;;;6250378;23;20004;-78
2023/08/12 07:01:33;;;;;;;6.40;3.22;;;24.90;93.40;;;;;;6249081;23;20000;-79
2023/08/12 07:03:58;;;;;;;6.60;3.25;;;24.50;93.00;;;;;;6250906;23;20079;-78
2023/08/12 07:06:28;;;;;;;5.45;3.08;;;24.30;94.00;;;;;;6248679;23;20101;-78
2023/08/12 07:08:54;;;;;;;6.05;2.97;;;24.20;93.60;;;;;;6250915;23;19997;-77
2023/08/12 07:11:19;;;;;;;6.00;2.92;;;24.00;94.00;;;;;;6250494;23;20006;-78
2023/08/12 07:13:46;;;;;;;7.10;2.90;;;23.80;94.40;;;;;;6250372;23;20054;-79
2023/08/12 07:16:12;;;;;;;8.68;3.75;;;23.60;94.40;;;;;;6249722;23;20075;-78
2023/08/12 07:18:37;;;;;;;7.30;4.00;;;23.40;94.70;;;;;;6224199;23;20042;-77
2023/08/12 07:21:03;;;;;;;4.45;2.70;;;23.40;96.10;;;;;;6248869;23;20000;-77
2023/08/12 07:23:29;;;;;;;5.43;3.10;;;23.20;95.20;;;;;;6249874;23;20382;-77
2023/08/12 07:25:54;;;;;;;6.10;3.10;;;23.00;94.90;;;;;;6250827;23;19996;-76
2023/08/12 07:28:20;;;;;;;4.88;2.65;;;23.10;94.40;;;;;;6250432;23;20003;-77
2023/08/12 07:30:47;;;;;;;5.10;2.85;;;23.50;93.00;;;;;;6249538;23;20000;-77
2023/08/12 07:33:13;;;;;;;6.10;2.80;;;24.00;92.80;;;;;;6250127;23;20062;-79
2023/08/12 07:35:38;;;;;;;5.10;2.50;;;24.60;91.20;;;;;;6248857;23;20020;-79
2023/08/12 07:38:04;;;;;;;4.65;2.40;;;25.10;90.60;;;;;;6248458;23;20042;-79
2023/08/12 07:40:29;;;;;;;5.55;2.28;;;25.60;86.40;;;;;;6249753;23;20302;-78
2023/08/12 07:42:55;;;;;;;5.07;2.50;;;25.90;84.20;;;;;;6248772;23;20010;-78
2023/08/12 07:45:22;;;;;;;5.45;2.60;;;26.20;83.40;;;;;;6248272;23;20007;-78
2023/08/12 07:47:48;;;;;;;4.57;2.30;;;26.70;82.30;;;;;;6249884;23;20004;-79
2023/08/12 07:50:15;;;;;;;4.10;2.50;;;27.40;78.00;;;;;;6249424;23;20000;-78
2023/08/12 07:52:43;;;;;;;5.28;2.75;;;28.70;75.40;;;;;;6247297;23;20008;-79
2023/08/12 07:55:09;;;;;;;5.22;2.40;;;30.20;73.10;;;;;;6248789;23;20053;-79
2023/08/12 07:57:34;;;;;;;4.40;2.05;;;31.60;69.40;;;;;;6249103;23;20087;-79
2023/08/12 08:00:00;;;;;;;3.97;2.13;;;32.10;67.80;;;;;;6249099;23;20007;-78
2023/08/12 08:02:25;;;;;;;5.22;2.28;;;31.90;66.70;;;;;;6222884;23;20004;-79
2023/08/12 08:04:51;;;;;;;3.90;2.10;;;31.40;67.80;;;;;;6248129;23;20093;-79
2023/08/12 08:07:17;;;;;;;6.03;2.38;;;31.50;69.50;;;;;;6248146;23;19992;-79
2023/08/12 08:09:43;;;;;;;7.13;2.40;;;32.20;68.30;;;;;;6249453;23;20103;-79
2023/08/12 08:12:10;;;;;;;5.45;2.30;;;32.50;66.50;;;;;;6249566;23;20031;-79
2023/08/12 08:14:36;;;;;;;5.18;2.20;;;33.40;64.80;;;;;;6248404;23;20004;-78
2023/08/12 08:17:02;;;;;;;4.55;2.55;;;34.00;63.70;;;;;;6222654;23;20004;-79
2023/08/12 08:19:27;;;;;;;6.88;2.38;;;34.00;63.90;;;;;;6249153;23;19993;-79
2023/08/12 08:21:53;;;;;;;6.07;2.53;;;34.20;63.00;;;;;;6247612;23;20142;-80
2023/08/12 08:24:18;;;;;;;3.60;2.20;;;32.90;64.00;;;;;;6222547;23;20020;-79
2023/08/12 08:26:46;;;;;;;4.70;2.28;;;31.80;66.60;;;;;;6223149;23;20000;-79
2023/08/12 08:29:12;;;;;;;5.28;2.60;;;31.10;68.80;;;;;;6222873;23;20281;-79
2023/08/12 08:31:38;;;;;;;5.13;2.50;;;31.50;67.80;;;;;;6249667;23;20004;-79
2023/08/12 08:34:04;;;;;;;5.18;2.67;;;31.90;67.30;;;;;;6249483;23;20015;-79
2023/08/12 08:36:30;;;;;;;6.95;2.53;;;33.00;64.60;;;;;;6247672;23;20000;-79
2023/08/12 08:38:55;;;;;;;4.63;2.60;;;33.60;63.80;;;;;;6245569;23;20011;-79
2023/08/12 08:41:21;;;;;;;4.30;2.40;;;33.80;63.70;;;;;;6217579;23;20012;-77
2023/08/12 08:43:48;;;;;;;4.20;2.53;;;32.40;65.80;;;;;;6246040;23;20424;-79
2023/08/12 08:46:17;;;;;;;6.60;2.58;;;31.70;66.00;;;;;;6219453;23;20000;-79
2023/08/12 08:48:44;;;;;;;5.28;2.58;;;31.20;67.70;;;;;;6245874;23;20005;-79
2023/08/12 08:51:13;;;;;;;8.13;3.00;;;31.10;69.00;;;;;;6242686;23;20028;-79
2023/08/12 08:53:39;;;;;;;5.13;2.67;;;30.90;69.10;;;;;;6245012;23;20016;-79
2023/08/12 08:56:11;;;;;;;5.75;2.63;;;31.00;69.00;;;;;;6244822;23;20000;-78
2023/08/12 08:58:38;;;;;;;6.20;3.03;;;31.80;69.00;;;;;;6244627;23;20385;-79
2023/08/12 09:01:06;;;;;;;5.47;2.60;;;32.20;67.80;;;;;;6242876;23;20039;-79
2023/08/12 09:03:35;;;;;;;5.70;2.78;;;33.20;65.40;;;;;;6245718;23;20062;-79
2023/08/12 09:06:01;;;;;;;8.82;2.83;;;34.30;63.90;;;;;;6244215;23;20095;-80
2023/08/12 09:08:29;;;;;;;6.20;2.70;;;34.90;62.40;;;;;;6244898;23;20123;-79
2023/08/12 09:10:56;;;;;;;5.00;2.55;;;34.10;62.70;;;;;;6246055;23;20305;-79
2023/08/12 09:13:22;;;;;;;6.00;2.70;;;33.10;63.20;;;;;;6244987;23;20004;-79
2023/08/12 09:15:47;;;;;;;5.57;2.75;;;31.80;65.00;;;;;;6217966;23;20087;-78
2023/08/12 09:18:13;;;;;;;5.70;2.95;;;31.00;66.70;;;;;;6245495;23;20016;-79
2023/08/12 09:20:39;;;;;;;4.90;2.70;;;30.70;68.00;;;;;;6217112;23;20054;-79
2023/08/12 09:23:04;;;;;;;6.45;2.70;;;30.40;69.40;;;;;;6244400;23;20020;-78
2023/08/12 09:25:35;;;;;;;6.65;3.08;;;29.80;68.10;;;;;;6245322;23;20011;-79
2023/08/12 09:28:00;;;;;;;6.28;3.30;;;29.30;70.60;;;;;;6244876;23;20005;-77
2023/08/12 09:30:31;;;;;;;6.10;3.10;;;29.20;70.50;;;;;;6244395;23;20499;-79
2023/08/12 09:33:06;;;;;;;6.63;2.75;;;29.60;69.30;;;;;;6244688;23;20350;-78
2023/08/12 09:35:41;;;;;;;5.57;2.88;;;29.80;69.20;;;;;;6244220;23;20011;-78
2023/08/12 09:38:10;;;;;;;6.70;2.65;;;30.70;67.20;;;;;;6245046;22;20017;-79
2023/08/12 09:40:37;;;;;;;7.60;2.78;;;32.20;66.30;;;;;;6245698;23;20023;-79
2023/08/12 09:43:03;;;;;;;7.65;2.60;;;33.60;63.30;;;;;;6244541;23;20516;-79
2023/08/12 09:45:30;;;;;;;6.22;2.70;;;33.60;61.20;;;;;;6243015;23;19999;-79
2023/08/12 09:47:59;;;;;;;5.78;2.55;;;32.80;61.40;;;;;;6245825;23;20000;-79
2023/08/12 09:50:26;;;;;;;6.82;2.72;;;32.00;62.90;;;;;;6241921;23;20239;-79
2023/08/12 09:52:54;;;;;;;6.60;2.90;;;31.80;64.60;;;;;;6216685;23;20012;-78
2023/08/12 09:55:22;;;;;;;4.70;2.55;;;31.70;64.80;;;;;;6243700;23;20009;-79
2023/08/12 09:57:53;;;;;;;9.05;2.97;;;31.40;66.30;;;;;;6245019;23;20007;-79
2023/08/12 10:00:20;;;;;;;6.25;3.00;;;31.40;66.50;;;;;;6245100;23;20004;-79
2023/08/12 10:02:48;;;;;;;10.32;3.15;;;30.90;66.50;;;;;;6242126;23;20007;-78
2023/08/12 10:05:31;;;;;;;5.88;2.50;;;30.40;69.50;;;;;;6243544;23;20000;-79
2023/08/12 10:07:56;;;;;;;5.83;2.80;;;30.30;69.00;;;;;;6245225;23;20004;-79
2023/08/12 10:10:23;;;;;;;6.03;2.50;;;30.30;68.20;;;;;;6243783;23;20433;-79
2023/08/12 10:12:49;;;;;;;5.68;2.65;;;30.30;69.10;;;;;;6217248;23;20012;-79
2023/08/12 10:15:15;;;;;;;4.65;2.67;;;30.40;69.20;;;;;;6244413;23;20028;-78
2023/08/12 10:17:41;;;;;;;6.15;2.50;;;30.70;69.30;;;;;;6244237;23;20008;-77
2023/08/12 10:20:08;;;;;;;7.30;2.72;;;30.80;69.30;;;;;;6246649;23;20004;-77
2023/08/12 10:22:36;;;;;;;4.80;2.60;;;31.10;67.70;;;;;;6244832;23;20048;-77
2023/08/12 10:25:03;;;;;;;5.93;2.53;;;31.20;68.20;;;;;;6246355;23;20012;-77
2023/08/12 10:27:29;;;;;;;8.32;2.95;;;30.90;67.70;;;;;;6246832;23;20580;-79
2023/08/12 10:29:58;;;;;;;5.05;2.70;;;30.30;69.10;;;;;;6247245;23;20103;-79
2023/08/12 10:32:25;;;;;;;7.53;2.83;;;29.70;70.40;;;;;;6246989;23;20330;-78
2023/08/12 10:34:58;;;;;;;4.93;3.00;;;29.70;70.80;;;;;;6245962;23;19996;-77
2023/08/12 10:37:25;;;;;;;10.20;3.08;;;30.80;69.00;;;;;;6246529;23;20035;-78
2023/08/12 10:39:53;;;;;;;6.35;2.60;;;30.80;68.70;;;;;;6247168;23;20240;-79
2023/08/12 10:42:42;;;;;;;8.85;2.85;;;30.70;68.50;;;;;;6247043;23;20000;-79
2023/08/12 10:45:09;;;;;;;6.05;2.78;;;31.20;67.20;;;;;;6247254;23;20004;-78
2023/08/12 10:47:41;;;;;;;6.18;2.30;;;31.90;65.50;;;;;;6246946;23;20312;-78
2023/08/12 10:50:30;;;;;;;5.80;3.00;;;31.00;66.20;;;;;;6245899;23;20008;-78
2023/08/12 10:52:56;;;;;;;7.10;2.35;;;29.90;68.60;;;;;;6247141;23;20355;-76
2023/08/12 10:55:24;;;;;;;8.65;2.78;;;30.00;68.80;;;;;;6246637;23;20005;-78
2023/08/12 10:57:51;;;;;;;6.70;2.75;;;29.80;68.70;;;;;;6246551;23;20006;-78
2023/08/12 11:00:23;;;;;;;7.28;2.60;;;29.60;68.90;;;;;;6245953;23;20008;-78
2023/08/12 11:02:54;;;;;;;9.73;2.30;;;29.50;67.70;;;;;;6244118;23;20107;-78
2023/08/12 11:05:20;;;;;;;5.22;2.50;;;29.30;67.00;;;;;;6245344;23;20075;-78
2023/08/12 11:08:05;;;;;;;5.35;2.13;;;29.20;67.40;;;;;;6244793;23;20069;-78
2023/08/12 11:10:34;;;;;;;5.57;2.28;;;29.60;67.90;;;;;;6245533;23;20395;-78
2023/08/12 11:13:00;;;;;;;4.18;1.80;;;29.90;67.20;;;;;;6246047;23;20385;-78
2023/08/12 11:15:38;;;;;;;4.25;2.08;;;30.30;67.00;;;;;;6246478;23;20016;-78
2023/08/12 11:18:05;;;;;;;5.50;1.90;;;30.40;67.90;;;;;;6245652;23;20274;-78
2023/08/12 11:20:30;;;;;;;5.55;2.17;;;30.60;64.50;;;;;;6244709;23;20003;-78
2023/08/12 11:22:58;;;;;;;5.40;1.98;;;30.30;63.40;;;;;;6218138;23;20012;-78
2023/08/12 11:25:24;;;;;;;6.32;2.40;;;30.60;64.70;;;;;;6245054;23;20003;-78
2023/08/12 11:27:49;;;;;;;5.60;2.00;;;31.00;62.40;;;;;;6245914;23;19997;-78
2023/08/12 11:30:17;;;;;;;6.75;2.20;;;31.40;62.50;;;;;;6249936;23;20007;-78
2023/08/12 11:32:45;;;;;;;4.53;2.03;;;31.90;63.00;;;;;;6248889;23;20079;-77
2023/08/12 11:35:12;;;;;;;6.22;2.30;;;32.00;60.30;;;;;;6250298;23;20004;-78
2023/08/12 11:37:39;;;;;;;6.20;2.20;;;32.40;62.50;;;;;;6248532;23;20251;-78
2023/08/12 11:40:08;;;;;;;6.32;2.35;;;32.60;62.60;;;;;;6250099;23;20079;-78
2023/08/12 11:42:35;;;;;;;4.80;2.30;;;32.90;61.20;;;;;;6247763;23;20016;-78
2023/08/12 11:45:00;;;;;;;5.10;2.17;;;32.70;61.60;;;;;;6250414;23;20438;-78
2023/08/12 11:47:26;;;;;;;5.28;2.10;;;32.00;63.10;;;;;;6248954;23;20028;-78
2023/08/12 11:49:53;;;;;;;4.40;2.15;;;31.70;64.20;;;;;;6248133;23;20143;-79
2023/08/12 11:52:19;;;;;;;5.18;2.58;;;31.80;63.70;;;;;;6243350;23;20127;-79
2023/08/12 11:54:45;;;;;;;5.95;2.60;;;30.10;64.90;;;;;;6245750;23;20027;-79
2023/08/12 11:57:10;;;;;;;5.18;2.50;;;29.50;66.90;;;;;;6246361;23;20054;-79
2023/08/12 11:59:37;;;;;;;5.97;2.17;;;29.00;68.80;;;;;;6246629;23;20008;-79
2023/08/12 12:02:04;;;;;;;4.63;2.35;;;28.70;70.30;;;;;;6244681;23;20561;-78
2023/08/12 12:04:31;;;;;;;5.75;2.40;;;29.20;69.00;;;;;;6245090;23;20378;-79
2023/08/12 12:06:59;;;;;;;5.20;2.53;;;29.50;69.00;;;;;;6243885;23;20000;-77
2023/08/12 12:09:26;;;;;;;5.70;2.47;;;29.80;68.90;;;;;;6245517;23;20000;-79
2023/08/12 12:11:53;;;;;;;5.93;2.85;;;30.00;67.90;;;;;;6246106;23;20004;-78
2023/08/12 12:14:20;;;;;;;6.97;2.90;;;30.00;68.40;;;;;;6244934;23;20004;-77
2023/08/12 12:16:47;;;;;;;5.68;2.50;;;30.20;68.00;;;;;;6246702;23;20019;-78
2023/08/12 12:19:21;;;;;;;5.05;2.65;;;30.10;67.60;;;;;;6245096;23;20008;-78
2023/08/12 12:21:52;;;;;;;4.93;2.58;;;29.60;68.20;;;;;;6242168;23;20035;-78
2023/08/12 12:24:18;;;;;;;6.13;2.53;;;29.30;68.90;;;;;;6245385;23;20395;-78
2023/08/12 12:26:45;;;;;;;7.40;2.63;;;29.10;68.90;;;;;;6244000;23;20004;-78
2023/08/12 12:29:14;;;;;;;5.43;2.63;;;28.80;69.40;;;;;;6243284;23;20014;-79
2023/08/12 12:31:41;;;;;;;4.88;2.35;;;28.50;70.30;;;;;;6244912;23;20062;-80
2023/08/12 12:34:09;;;;;;;7.25;3.05;;;27.90;71.10;;;;;;6245279;23;20036;-79
2023/08/12 12:36:36;;;;;;;6.78;2.78;;;27.30;74.70;;;;;;6242964;23;20010;-77
2023/08/12 12:39:06;;;;;;;5.97;3.22;;;26.50;77.20;;;;;;6245540;23;20008;-78
2023/08/12 12:41:32;;;;;;;6.55;3.10;;;25.70;82.40;;;;;;6247796;23;20008;-79
2023/08/12 12:44:01;;;;;;;8.13;3.40;;;24.80;86.20;;;;;;6249330;23;20000;-79